createdAt,value
2022-10-08T00:01:22.864Z,12.48
2022-10-08T00:03:53.233Z,19.38
2022-10-08T00:06:21.020Z,16.83
2022-10-08T00:08:51.567Z,14.05
2022-10-08T00:11:25.455Z,13.32
2022-10-08T00:13:53.128Z,16.48
2022-10-08T00:16:19.498Z,12.20
2022-10-08T00:18:47.100Z,7.45
2022-10-08T00:21:16.373Z,10.65
2022-10-08T00:23:43.779Z,14.52
2022-10-08T00:26:10.254Z,9.98
2022-10-08T00:28:37.356Z,4.72
2022-10-08T00:31:07.609Z,11.45
2022-10-08T00:33:36.147Z,7.00
2022-10-08T00:36:03.244Z,8.93
2022-10-08T00:38:29.814Z,7.63
2022-10-08T00:40:56.456Z,11.30
2022-10-08T00:43:37.899Z,12.70
2022-10-08T00:46:06.005Z,7.90
2022-10-08T00:48:32.346Z,6.38
2022-10-08T00:50:58.604Z,6.97
2022-10-08T00:53:24.908Z,4.35
2022-10-08T00:55:51.168Z,7.28
2022-10-08T00:58:20.091Z,9.60
2022-10-08T01:00:47.712Z,13.10
2022-10-08T01:03:14.474Z,6.28
2022-10-08T01:05:49.882Z,11.88
2022-10-08T01:08:25.845Z,11.65
2022-10-08T01:11:04.053Z,9.20
2022-10-08T01:13:36.276Z,8.52
2022-10-08T01:16:10.791Z,12.63
2022-10-08T01:18:41.583Z,10.55
2022-10-08T01:21:30.375Z,7.57
2022-10-08T01:23:56.643Z,8.77
2022-10-08T01:26:35.033Z,13.32
2022-10-08T01:29:01.287Z,12.27
2022-10-08T01:32:01.792Z,10.73
2022-10-08T01:34:34.586Z,14.73
2022-10-08T01:37:01.207Z,11.25
2022-10-08T01:39:30.409Z,8.43
2022-10-08T01:41:57.415Z,7.35
2022-10-08T01:44:49.987Z,8.55
2022-10-08T01:47:20.049Z,6.38
2022-10-08T01:49:50.535Z,7.10
2022-10-08T01:52:21.750Z,10.90
2022-10-08T01:54:49.486Z,11.15
2022-10-08T01:57:15.954Z,10.23
2022-10-08T01:59:49.739Z,11.23
2022-10-08T02:02:23.176Z,15.80
2022-10-08T02:04:53.351Z,10.35
2022-10-08T02:07:23.100Z,8.57
2022-10-08T02:10:06.686Z,10.68
2022-10-08T02:12:33.862Z,11.23
2022-10-08T02:15:00.543Z,5.97
2022-10-08T02:17:38.813Z,11.75
2022-10-08T02:20:07.543Z,13.68
2022-10-08T02:22:52.519Z,9.77
2022-10-08T02:25:24.688Z,7.93
2022-10-08T02:27:52.003Z,12.20
2022-10-08T02:30:18.651Z,7.38
2022-10-08T02:32:49.365Z,6.90
2022-10-08T02:35:23.374Z,8.70
2022-10-08T02:37:56.045Z,11.07
2022-10-08T02:40:22.822Z,8.52
2022-10-08T02:42:55.906Z,12.85
2022-10-08T02:45:24.615Z,5.38
2022-10-08T02:47:53.466Z,11.25
2022-10-08T02:50:22.543Z,11.90
2022-10-08T02:52:50.984Z,7.57
2022-10-08T02:55:26.510Z,6.88
2022-10-08T02:58:04.362Z,4.53
2022-10-08T03:00:34.493Z,6.55
2022-10-08T03:03:12.387Z,5.40
2022-10-08T03:05:40.380Z,5.65
2022-10-08T03:08:07.928Z,7.32
2022-10-08T03:10:36.131Z,4.35
2022-10-08T03:13:03.486Z,5.40
2022-10-08T03:15:31.112Z,6.47
2022-10-08T03:17:57.852Z,4.95
2022-10-08T03:20:24.131Z,10.02
2022-10-08T03:22:50.484Z,10.00
2022-10-08T03:25:16.815Z,5.68
2022-10-08T03:27:43.060Z,5.88
2022-10-08T03:30:09.787Z,5.93
2022-10-08T03:32:36.079Z,4.85
2022-10-08T03:35:02.372Z,6.97
2022-10-08T03:37:28.622Z,5.88
2022-10-08T03:39:54.872Z,5.32
2022-10-08T03:42:21.176Z,4.43
2022-10-08T03:44:47.678Z,4.93
2022-10-08T03:47:14.043Z,6.05
2022-10-08T03:49:41.140Z,4.72
2022-10-08T03:52:07.375Z,5.70
2022-10-08T03:54:34.888Z,6.35
2022-10-08T03:57:01.299Z,7.82
2022-10-08T03:59:27.659Z,6.75
2022-10-08T04:01:54.001Z,4.88
2022-10-08T04:04:24.621Z,5.10
2022-10-08T04:06:51.930Z,15.32
2022-10-08T04:09:18.230Z,4.88
2022-10-08T04:11:44.535Z,4.40
2022-10-08T04:14:10.790Z,4.68
2022-10-08T04:16:37.094Z,5.00
2022-10-08T04:19:03.395Z,6.75
2022-10-08T04:21:29.964Z,6.97
2022-10-08T04:23:56.269Z,9.43
2022-10-08T04:26:22.815Z,7.88
2022-10-08T04:28:49.227Z,9.45
2022-10-08T04:31:19.208Z,11.85
2022-10-08T04:33:46.163Z,13.35
2022-10-08T04:36:13.697Z,11.20
2022-10-08T04:38:40.073Z,12.65
2022-10-08T04:41:16.415Z,13.75
2022-10-08T04:43:43.126Z,11.68
2022-10-08T04:46:10.297Z,14.85
2022-10-08T04:48:36.662Z,17.48
2022-10-08T04:51:08.050Z,15.68
2022-10-08T04:53:36.552Z,15.65
2022-10-08T04:56:10.122Z,17.65
2022-10-08T04:58:36.425Z,19.52
2022-10-08T05:01:03.804Z,16.52
2022-10-08T05:03:30.071Z,17.95
2022-10-08T05:05:56.344Z,17.90
2022-10-08T05:08:22.610Z,18.00
2022-10-08T05:10:49.571Z,17.85
2022-10-08T05:13:15.827Z,20.73
2022-10-08T05:15:42.130Z,20.23
2022-10-08T05:18:08.466Z,18.58
2022-10-08T05:20:36.015Z,20.83
2022-10-08T05:23:02.333Z,24.60
2022-10-08T05:25:32.250Z,24.45
2022-10-08T05:27:58.860Z,23.83
2022-10-08T05:30:25.177Z,26.27
2022-10-08T05:32:51.434Z,29.30
2022-10-08T05:35:17.742Z,24.63
2022-10-08T05:37:44.020Z,24.65
2022-10-08T05:40:10.565Z,23.55
2022-10-08T05:42:37.018Z,19.67
2022-10-08T05:45:03.535Z,30.88
2022-10-08T05:47:29.818Z,25.83
2022-10-08T05:49:56.133Z,28.00
2022-10-08T05:52:22.376Z,22.08
2022-10-08T05:54:48.648Z,22.02
2022-10-08T05:57:14.961Z,28.00
2022-10-08T05:59:41.233Z,27.83
2022-10-08T06:02:07.508Z,35.03
2022-10-08T06:04:33.841Z,28.70
2022-10-08T06:07:00.174Z,25.20
2022-10-08T06:09:26.432Z,26.55
2022-10-08T06:11:52.744Z,31.83
2022-10-08T06:14:20.431Z,31.55
2022-10-08T06:16:46.907Z,25.90
2022-10-08T06:19:13.302Z,32.53
2022-10-08T06:21:39.606Z,28.23
2022-10-08T06:24:07.842Z,26.40
2022-10-08T06:26:36.422Z,35.72
2022-10-08T06:29:05.405Z,25.05
2022-10-08T06:31:31.771Z,22.33
2022-10-08T06:33:58.539Z,23.02
2022-10-08T06:36:25.895Z,26.58
2022-10-08T06:38:56.431Z,24.52
2022-10-08T06:41:22.930Z,26.17
2022-10-08T06:43:49.586Z,24.23
2022-10-08T06:46:16.255Z,23.05
2022-10-08T06:48:42.932Z,24.00
2022-10-08T06:51:13.248Z,22.40
2022-10-08T06:53:39.903Z,18.02
2022-10-08T06:56:07.093Z,24.38
2022-10-08T06:58:36.723Z,17.48
2022-10-08T07:01:03.363Z,15.48
2022-10-08T07:03:30.038Z,16.52
2022-10-08T07:05:59.034Z,17.42
2022-10-08T07:08:25.287Z,13.55
2022-10-08T07:10:51.763Z,13.95
2022-10-08T07:13:18.038Z,17.85
2022-10-08T07:15:44.352Z,14.63
2022-10-08T07:18:12.099Z,8.27
2022-10-08T07:20:41.360Z,11.18
2022-10-08T07:23:07.659Z,7.28
2022-10-08T07:25:33.928Z,12.70
2022-10-08T07:28:00.290Z,11.70
2022-10-08T07:30:26.602Z,8.55
2022-10-08T07:32:53.741Z,7.45
2022-10-08T07:35:19.983Z,7.05
2022-10-08T07:37:46.254Z,17.35
2022-10-08T07:40:12.511Z,7.82
2022-10-08T07:42:38.873Z,7.13
2022-10-08T07:45:05.297Z,6.60
2022-10-08T07:47:31.567Z,8.55
2022-10-08T07:49:57.834Z,7.20
2022-10-08T07:52:24.089Z,3.75
2022-10-08T07:54:50.365Z,11.20
2022-10-08T07:57:16.630Z,5.85
2022-10-08T07:59:42.900Z,3.58
2022-10-08T08:02:09.445Z,5.45
2022-10-08T08:04:35.751Z,5.22
2022-10-08T08:07:02.005Z,6.93
2022-10-08T08:09:28.327Z,8.85
2022-10-08T08:11:54.735Z,5.90
2022-10-08T08:14:21.532Z,3.90
2022-10-08T08:16:47.846Z,7.45
2022-10-08T08:19:14.764Z,2.70
2022-10-08T08:21:41.027Z,7.45
2022-10-08T08:24:09.689Z,2.40
2022-10-08T08:26:37.839Z,6.53
2022-10-08T08:29:08.650Z,9.25
2022-10-08T08:31:36.369Z,2.80
2022-10-08T08:34:04.035Z,3.35
2022-10-08T08:36:31.685Z,7.20
2022-10-08T08:38:58.402Z,4.18
2022-10-08T08:41:30.576Z,6.82
2022-10-08T08:43:57.498Z,3.65
2022-10-08T08:46:24.016Z,4.93
2022-10-08T08:48:51.698Z,4.88
2022-10-08T08:51:18.084Z,5.63
2022-10-08T08:53:44.433Z,3.17
2022-10-08T08:56:12.296Z,9.40
2022-10-08T08:58:41.418Z,6.13
2022-10-08T09:01:17.975Z,5.72
2022-10-08T09:03:47.081Z,11.95
2022-10-08T09:06:14.576Z,3.72
2022-10-08T09:08:43.079Z,11.95
2022-10-08T09:11:12.135Z,7.97
2022-10-08T09:13:44.389Z,5.88
2022-10-08T09:16:16.588Z,10.77
2022-10-08T09:18:46.514Z,7.72
2022-10-08T09:21:12.881Z,3.88
2022-10-08T09:23:39.143Z,3.28
2022-10-08T09:26:08.149Z,7.05
2022-10-08T09:28:51.103Z,5.82
2022-10-08T09:31:23.177Z,5.75
2022-10-08T09:34:08.163Z,4.63
2022-10-08T09:36:40.242Z,5.15
2022-10-08T09:39:14.199Z,6.30
2022-10-08T09:41:40.438Z,3.88
2022-10-08T09:44:11.370Z,3.60
2022-10-08T09:46:37.638Z,8.07
2022-10-08T09:49:22.563Z,7.82
2022-10-08T09:51:50.148Z,10.38
2022-10-08T09:54:19.819Z,6.78
2022-10-08T09:56:53.029Z,2.30
2022-10-08T09:59:20.253Z,3.63
2022-10-08T10:01:47.324Z,5.47
2022-10-08T10:04:25.035Z,5.40
2022-10-08T10:06:52.963Z,3.03
2022-10-08T10:09:48.343Z,6.05
2022-10-08T10:12:24.303Z,3.85
2022-10-08T10:14:56.417Z,5.88
2022-10-08T10:17:22.651Z,4.35
2022-10-08T10:19:54.742Z,2.65
2022-10-08T10:22:25.418Z,5.82
2022-10-08T10:25:06.673Z,7.55
2022-10-08T10:27:36.544Z,5.20
2022-10-08T10:30:19.913Z,4.60
2022-10-08T10:33:01.775Z,8.95
2022-10-08T10:35:29.084Z,6.40
2022-10-08T10:37:59.859Z,10.55
2022-10-08T10:40:35.312Z,4.28
2022-10-08T10:43:11.140Z,6.40
2022-10-08T10:45:39.365Z,8.35
2022-10-08T10:48:08.132Z,2.60
2022-10-08T10:50:34.377Z,8.15
2022-10-08T10:53:00.595Z,5.00
2022-10-08T10:55:35.532Z,5.65
2022-10-08T10:58:04.511Z,3.97
2022-10-08T11:00:42.727Z,3.13
2022-10-08T11:03:12.084Z,3.60
2022-10-08T11:05:39.908Z,4.55
2022-10-08T11:08:18.420Z,5.45
2022-10-08T11:10:53.591Z,5.57
2022-10-08T11:13:36.468Z,3.00
2022-10-08T11:16:11.966Z,4.95
2022-10-08T11:18:49.798Z,5.25
2022-10-08T11:21:16.050Z,4.10
2022-10-08T11:23:59.505Z,7.13
2022-10-08T11:26:25.848Z,8.45
2022-10-08T11:29:09.512Z,3.75
2022-10-08T11:31:44.955Z,3.72
2022-10-08T11:34:34.661Z,4.38
2022-10-08T11:37:07.073Z,5.80
2022-10-08T11:39:39.520Z,2.75
2022-10-08T11:42:30.517Z,5.78
2022-10-08T11:45:15.422Z,3.58
2022-10-08T11:47:41.687Z,3.78
2022-10-08T11:50:34.415Z,3.78
2022-10-08T11:53:00.710Z,4.25
2022-10-08T11:55:29.091Z,3.58
2022-10-08T11:58:07.600Z,5.30
2022-10-08T12:00:39.470Z,5.68
2022-10-08T12:03:16.835Z,5.32
2022-10-08T12:05:50.286Z,4.93
2022-10-08T12:08:35.735Z,8.80
2022-10-08T12:11:20.927Z,3.17
2022-10-08T12:14:07.160Z,2.70
2022-10-08T12:16:48.965Z,4.30
2022-10-08T12:19:33.891Z,3.55
2022-10-08T12:22:16.454Z,5.10
2022-10-08T12:24:50.359Z,7.00
2022-10-08T12:27:17.073Z,4.82
2022-10-08T12:30:02.007Z,4.55
2022-10-08T12:32:43.562Z,3.28
2022-10-08T12:35:23.590Z,2.28
2022-10-08T12:37:55.934Z,3.47
2022-10-08T12:40:28.272Z,6.40
2022-10-08T12:43:00.404Z,2.90
2022-10-08T12:45:29.495Z,3.42
2022-10-08T12:47:55.727Z,6.32
2022-10-08T12:50:28.358Z,7.68
2022-10-08T12:52:54.780Z,5.00
2022-10-08T12:55:22.461Z,3.97
2022-10-08T12:57:50.173Z,10.77
2022-10-08T13:00:20.610Z,3.00
2022-10-08T13:02:58.155Z,3.47
2022-10-08T13:05:34.999Z,6.55
2022-10-08T13:08:20.051Z,3.30
2022-10-08T13:10:46.322Z,6.88
2022-10-08T13:13:32.224Z,2.72
2022-10-08T13:16:02.597Z,7.80
2022-10-08T13:18:29.854Z,6.05
2022-10-08T13:21:00.303Z,2.60
2022-10-08T13:23:33.377Z,3.38
2022-10-08T13:26:00.757Z,5.72
2022-10-08T13:28:48.472Z,3.85
2022-10-08T13:31:21.521Z,5.20
2022-10-08T13:33:47.852Z,13.93
2022-10-08T13:36:19.164Z,6.40
2022-10-08T13:38:45.775Z,5.25
2022-10-08T13:41:23.203Z,2.70
2022-10-08T13:43:49.481Z,5.32
2022-10-08T13:46:15.848Z,18.30
2022-10-08T13:48:45.065Z,4.22
2022-10-08T13:51:11.505Z,3.88
2022-10-08T13:53:37.899Z,4.95
2022-10-08T13:56:05.388Z,2.50
2022-10-08T13:58:32.715Z,2.92
2022-10-08T14:00:59.058Z,41.05
2022-10-08T14:03:25.353Z,3.35
2022-10-08T14:05:52.144Z,6.97
2022-10-08T14:08:21.163Z,7.07
2022-10-08T14:10:47.626Z,3.03
2022-10-08T14:13:14.988Z,4.68
2022-10-08T14:15:41.746Z,3.75
2022-10-08T14:18:08.120Z,5.65
2022-10-08T14:20:35.256Z,6.40
2022-10-08T14:23:01.564Z,2.88
2022-10-08T14:25:31.758Z,10.40
2022-10-08T14:27:58.887Z,4.60
2022-10-08T14:30:25.436Z,3.30
2022-10-08T14:32:51.763Z,7.45
2022-10-08T14:35:18.278Z,2.60
2022-10-08T14:37:44.576Z,7.47
2022-10-08T14:40:15.679Z,6.60
2022-10-08T14:42:41.937Z,4.63
2022-10-08T14:45:08.320Z,7.57
2022-10-08T14:47:34.569Z,6.57
2022-10-08T14:50:01.043Z,6.50
2022-10-08T14:52:27.288Z,6.38
2022-10-08T14:54:53.536Z,7.90
2022-10-08T14:57:20.236Z,5.35
2022-10-08T14:59:46.479Z,2.88
2022-10-08T15:02:12.926Z,4.00
2022-10-08T15:04:39.322Z,2.40
2022-10-08T15:07:05.608Z,11.68
2022-10-08T15:09:31.969Z,3.15
2022-10-08T15:11:58.391Z,3.13
2022-10-08T15:14:24.669Z,4.18
2022-10-08T15:16:50.967Z,2.95
2022-10-08T15:19:21.157Z,6.35
2022-10-08T15:21:49.931Z,4.10
2022-10-08T15:24:16.198Z,9.18
2022-10-08T15:26:42.458Z,7.18
2022-10-08T15:29:08.715Z,3.10
2022-10-08T15:31:35.014Z,4.45
2022-10-08T15:34:01.797Z,6.78
2022-10-08T15:36:28.136Z,3.88
2022-10-08T15:38:55.446Z,5.85
2022-10-08T15:41:21.758Z,2.63
2022-10-08T15:43:48.039Z,5.28
2022-10-08T15:46:17.998Z,5.40
2022-10-08T15:48:51.743Z,5.55
2022-10-08T15:51:18.035Z,8.23
2022-10-08T15:53:44.290Z,8.50
2022-10-08T15:56:12.050Z,3.13
2022-10-08T15:58:50.504Z,5.05
2022-10-08T16:01:18.076Z,6.90
2022-10-08T16:03:45.615Z,6.15
2022-10-08T16:06:16.449Z,14.52
2022-10-08T16:08:44.782Z,3.00
2022-10-08T16:11:14.979Z,3.40
2022-10-08T16:13:42.563Z,3.78
2022-10-08T16:16:12.766Z,2.80
2022-10-08T16:18:41.318Z,4.70
2022-10-08T16:21:07.612Z,4.25
2022-10-08T16:23:35.121Z,6.57
2022-10-08T16:26:02.324Z,4.60
2022-10-08T16:28:31.488Z,8.88
2022-10-08T16:30:58.427Z,6.88
2022-10-08T16:33:25.404Z,5.60
2022-10-08T16:35:52.111Z,6.05
2022-10-08T16:38:18.363Z,7.15
2022-10-08T16:40:44.743Z,14.18
2022-10-08T16:43:10.992Z,4.75
2022-10-08T16:45:38.114Z,10.30
2022-10-08T16:48:05.310Z,8.95
2022-10-08T16:50:31.618Z,4.40
2022-10-08T16:52:58.080Z,6.45
2022-10-08T16:55:24.378Z,4.78
2022-10-08T16:57:51.763Z,4.55
2022-10-08T17:00:18.683Z,10.25
2022-10-08T17:02:45.221Z,5.88
2022-10-08T17:05:11.683Z,12.55
2022-10-08T17:07:37.927Z,8.88
2022-10-08T17:10:04.743Z,7.22
2022-10-08T17:12:30.994Z,7.28
2022-10-08T17:14:57.238Z,7.53
2022-10-08T17:17:23.488Z,12.57
2022-10-08T17:19:49.724Z,8.02
2022-10-08T17:22:16.824Z,8.25
2022-10-08T17:24:43.777Z,5.15
2022-10-08T17:27:10.028Z,8.32
2022-10-08T17:29:36.279Z,12.13
2022-10-08T17:32:06.121Z,8.23
2022-10-08T17:34:33.064Z,4.78
2022-10-08T17:36:59.736Z,5.35
2022-10-08T17:39:26.402Z,7.47
2022-10-08T17:41:52.766Z,8.43
2022-10-08T17:44:19.211Z,13.50
2022-10-08T17:46:46.933Z,7.35
2022-10-08T17:49:17.106Z,5.43
2022-10-08T17:51:44.553Z,7.20
2022-10-08T17:54:12.134Z,14.88
2022-10-08T17:56:38.423Z,6.57
2022-10-08T17:59:04.707Z,6.25
2022-10-08T18:01:32.060Z,7.20
2022-10-08T18:03:59.735Z,9.07
2022-10-08T18:06:26.720Z,10.38
2022-10-08T18:09:00.474Z,11.02
2022-10-08T18:11:27.379Z,8.63
2022-10-08T18:13:53.723Z,13.10
2022-10-08T18:16:21.015Z,8.20
2022-10-08T18:18:47.778Z,10.25
2022-10-08T18:21:15.351Z,9.50
2022-10-08T18:23:42.835Z,9.27
2022-10-08T18:26:12.206Z,8.35
2022-10-08T18:28:38.643Z,9.02
2022-10-08T18:31:05.728Z,9.65
2022-10-08T18:33:32.821Z,15.23
2022-10-08T18:36:09.299Z,8.45
2022-10-08T18:38:35.597Z,12.57
2022-10-08T18:41:09.491Z,8.45
2022-10-08T18:43:35.819Z,6.32
2022-10-08T18:46:02.580Z,11.63
2022-10-08T18:48:30.485Z,11.32
2022-10-08T18:51:01.309Z,10.65
2022-10-08T18:53:29.730Z,8.60
2022-10-08T18:55:55.975Z,6.90
2022-10-08T18:58:22.331Z,11.80
2022-10-08T19:00:48.597Z,9.82
2022-10-08T19:03:15.027Z,6.90
2022-10-08T19:05:41.328Z,7.55
2022-10-08T19:08:07.675Z,9.98
2022-10-08T19:10:34.011Z,8.90
2022-10-08T19:13:00.265Z,9.43
2022-10-08T19:15:26.526Z,10.23
2022-10-08T19:17:52.887Z,8.20
2022-10-08T19:20:19.195Z,8.32
2022-10-08T19:22:45.929Z,10.90
2022-10-08T19:25:12.843Z,5.25
2022-10-08T19:27:40.199Z,11.98
2022-10-08T19:30:06.864Z,6.40
2022-10-08T19:32:33.142Z,7.20
2022-10-08T19:34:59.589Z,5.43
2022-10-08T19:37:25.828Z,8.98
2022-10-08T19:39:52.813Z,8.40
2022-10-08T19:42:19.064Z,3.55
2022-10-08T19:44:45.390Z,7.53
2022-10-08T19:47:11.671Z,4.50
2022-10-08T19:49:37.951Z,8.30
2022-10-08T19:52:04.255Z,10.38
2022-10-08T19:54:30.567Z,10.57
2022-10-08T19:56:56.949Z,7.13
2022-10-08T19:59:23.438Z,10.93
2022-10-08T20:01:49.882Z,7.18
2022-10-08T20:04:16.963Z,6.10
2022-10-08T20:06:43.801Z,10.15
2022-10-08T20:09:12.000Z,8.93
2022-10-08T20:11:38.697Z,11.25
2022-10-08T20:14:05.279Z,7.57
2022-10-08T20:16:35.829Z,9.88
2022-10-08T20:19:04.096Z,5.88
2022-10-08T20:21:31.557Z,9.15
2022-10-08T20:23:58.002Z,14.88
2022-10-08T20:26:31.552Z,6.50
2022-10-08T20:29:01.883Z,9.40
2022-10-08T20:31:32.225Z,8.77
2022-10-08T20:34:01.659Z,9.90
2022-10-08T20:36:28.113Z,8.23
2022-10-08T20:38:54.512Z,6.20
2022-10-08T20:41:20.883Z,8.43
2022-10-08T20:43:47.290Z,11.10
2022-10-08T20:46:15.065Z,9.18
2022-10-08T20:48:42.372Z,7.53
2022-10-08T20:51:10.312Z,6.45
2022-10-08T20:53:37.041Z,8.35
2022-10-08T20:56:04.587Z,5.15
2022-10-08T20:58:31.447Z,10.40
2022-10-08T21:01:14.853Z,10.35
2022-10-08T21:03:44.680Z,12.45
2022-10-08T21:06:12.504Z,7.25
2022-10-08T21:08:39.442Z,9.95
2022-10-08T21:11:06.696Z,8.10
2022-10-08T21:13:33.761Z,13.65
2022-10-08T21:16:07.957Z,11.65
2022-10-08T21:18:35.029Z,10.07
2022-10-08T21:21:08.562Z,7.25
2022-10-08T21:23:35.102Z,8.52
2022-10-08T21:26:12.756Z,11.57
2022-10-08T21:28:39.588Z,7.18
2022-10-08T21:31:06.604Z,9.20
2022-10-08T21:33:37.282Z,10.35
2022-10-08T21:36:04.297Z,10.63
2022-10-08T21:38:30.858Z,9.77
2022-10-08T21:40:58.743Z,9.52
2022-10-08T21:43:25.568Z,6.95
2022-10-08T21:45:59.051Z,8.75
2022-10-08T21:48:25.961Z,8.70
2022-10-08T21:50:56.763Z,7.82
2022-10-08T21:53:23.542Z,15.52
2022-10-08T21:55:56.564Z,9.90
2022-10-08T21:58:23.076Z,7.97
2022-10-08T22:00:49.378Z,14.02
2022-10-08T22:03:16.547Z,9.48
2022-10-08T22:06:12.261Z,13.93
2022-10-08T22:08:38.528Z,14.93
2022-10-08T22:11:05.529Z,7.78
2022-10-08T22:13:31.797Z,7.90
2022-10-08T22:15:59.966Z,13.23
2022-10-08T22:18:27.422Z,10.43
2022-10-08T22:20:53.935Z,7.25
2022-10-08T22:23:21.039Z,9.80
2022-10-08T22:25:54.605Z,9.95
2022-10-08T22:28:21.208Z,8.68
2022-10-08T22:30:47.543Z,12.57
2022-10-08T22:33:14.106Z,8.77
2022-10-08T22:35:40.534Z,10.13
2022-10-08T22:38:06.899Z,7.82
2022-10-08T22:40:33.306Z,8.17
2022-10-08T22:42:59.594Z,6.35
2022-10-08T22:45:25.938Z,9.93
2022-10-08T22:47:52.291Z,7.45
2022-10-08T22:50:18.759Z,10.25
2022-10-08T22:52:46.361Z,7.85
2022-10-08T22:55:13.838Z,11.48
2022-10-08T22:57:40.411Z,9.20
2022-10-08T23:00:07.240Z,9.75
2022-10-08T23:02:34.112Z,7.28
2022-10-08T23:05:00.496Z,5.55
2022-10-08T23:07:26.768Z,6.82
2022-10-08T23:09:53.053Z,6.57
2022-10-08T23:12:19.470Z,8.00
2022-10-08T23:14:45.984Z,8.82
2022-10-08T23:17:12.333Z,8.85
2022-10-08T23:19:38.603Z,7.03
2022-10-08T23:22:04.953Z,5.70
2022-10-08T23:24:31.239Z,5.57
2022-10-08T23:26:57.702Z,13.98
2022-10-08T23:29:24.090Z,8.63
2022-10-08T23:31:50.483Z,6.57
2022-10-08T23:34:16.781Z,8.47
2022-10-08T23:36:43.665Z,7.90
2022-10-08T23:39:11.618Z,7.87
2022-10-08T23:41:38.058Z,6.27
2022-10-08T23:44:04.749Z,6.57
2022-10-08T23:46:31.244Z,6.50
2022-10-08T23:48:58.266Z,6.10
2022-10-08T23:51:25.655Z,7.10
2022-10-08T23:53:52.306Z,6.10
2022-10-08T23:56:19.174Z,14.47
2022-10-08T23:58:45.511Z,6.93
